Time;durP1;ratioP1;P1;durP2;ratioP2;P2;SDS_P1;SDS_P2;PMS_P1;PMS_P2;Temp;Humidity;BMP_temperature;BMP_pressure;BME280_temperature;BME280_humidity;BME280_pressure;Samples;Min_cycle;Max_cycle;Signal;HPM_P1;HPM_P2
2021/06/26 00:01:23;;;;;;;33.90;24.35;;;;;;;16.15;88.60;101433.53;5030895;28;20480;-88
2021/06/26 00:03:49;;;;;;;34.78;23.75;;;;;;;16.10;88.73;101430.53;5033197;28;20075;-86
2021/06/26 00:06:14;;;;;;;36.92;26.67;;;;;;;16.02;89.10;101423.31;5029924;28;20434;-82
2021/06/26 00:08:40;;;;;;;36.45;26.83;;;;;;;15.96;90.37;101429.47;5038085;28;20139;-82
2021/06/26 00:11:05;;;;;;;37.38;26.92;;;;;;;15.89;89.83;101426.66;5038995;28;20052;-84
2021/06/26 00:13:30;;;;;;;38.20;27.33;;;;;;;15.82;90.24;101428.41;5038408;28;20040;-83
2021/06/26 00:15:56;;;;;;;36.17;26.50;;;;;;;15.75;90.38;101428.31;5040233;28;20041;-90
2021/06/26 00:18:21;;;;;;;38.65;27.38;;;;;;;15.69;91.26;101420.09;5039855;28;20060;-85
2021/06/26 00:20:46;;;;;;;37.40;27.70;;;;;;;15.63;91.20;101418.09;5042141;28;20057;-84
2021/06/26 00:23:12;;;;;;;40.50;28.73;;;;;;;15.56;92.06;101413.41;5038604;28;21589;-83
2021/06/26 00:25:38;;;;;;;39.20;29.50;;;;;;;15.48;92.57;101418.88;5039577;28;20049;-83
2021/06/26 00:28:04;;;;;;;45.65;31.13;;;;;;;15.40;93.56;101418.94;5039208;28;20140;-84
2021/06/26 00:30:29;;;;;;;44.42;31.83;;;;;;;15.35;94.14;101427.59;5038570;28;20124;-84
2021/06/26 00:32:55;;;;;;;42.53;30.75;;;;;;;15.31;93.79;101425.44;5037575;28;20435;-82
2021/06/26 00:35:21;;;;;;;46.03;31.35;;;;;;;15.22;94.57;101427.34;5036925;28;20104;-84
2021/06/26 00:37:47;;;;;;;46.65;32.95;;;;;;;15.20;94.66;101423.97;5037493;28;20455;-83
2021/06/26 00:40:13;;;;;;;42.53;30.52;;;;;;;15.18;94.61;101428.72;5031846;28;20168;-85
2021/06/26 00:42:41;;;;;;;45.05;33.60;;;;;;;15.16;95.23;101430.75;5035954;28;20048;-82
2021/06/26 00:45:09;;;;;;;45.67;32.70;;;;;;;15.13;95.17;101436.50;5040348;28;20050;-82
2021/06/26 00:47:35;;;;;;;43.83;31.25;;;;;;;15.07;94.93;101435.34;5029629;28;20102;-82
2021/06/26 00:50:01;;;;;;;41.13;31.33;;;;;;;15.06;95.03;101436.41;5038962;28;20686;-82
2021/06/26 00:52:26;;;;;;;46.45;30.98;;;;;;;15.04;95.37;101426.78;5026623;28;20053;-83
2021/06/26 00:54:53;;;;;;;45.72;32.65;;;;;;;15.01;95.54;101425.25;5025275;28;20050;-85
2021/06/26 00:57:19;;;;;;;42.83;31.88;;;;;;;14.98;95.15;101431.03;5018903;28;20073;-85
2021/06/26 00:59:46;;;;;;;41.83;30.85;;;;;;;14.94;95.88;101429.72;5026885;28;20049;-83
2021/06/26 01:02:12;;;;;;;40.90;30.70;;;;;;;14.92;95.97;101426.34;5013601;28;20053;-82
2021/06/26 01:04:37;;;;;;;41.67;29.60;;;;;;;14.88;96.12;101430.44;5017295;28;20483;-86
2021/06/26 01:07:04;;;;;;;43.30;30.15;;;;;;;14.85;96.55;101422.69;5021301;28;20081;-85
2021/06/26 01:09:30;;;;;;;44.03;30.52;;;;;;;14.81;96.45;101424.03;5020510;28;20061;-82
2021/06/26 01:11:59;;;;;;;42.47;31.13;;;;;;;14.79;96.12;101424.22;5026099;28;20042;-82
2021/06/26 01:14:28;;;;;;;;;;;;;;;14.76;96.17;101429.97;5018954;28;20053;-85
2021/06/26 01:16:54;;;;;;;42.85;31.25;;;;;;;14.68;96.38;101424.63;5032089;28;19925;-85
2021/06/26 01:19:20;;;;;;;45.10;31.15;;;;;;;14.66;96.68;101432.88;5021943;28;20057;-84
2021/06/26 01:21:46;;;;;;;42.38;29.15;;;;;;;14.68;96.36;101446.22;5021118;28;20062;-89
2021/06/26 01:24:12;;;;;;;44.25;30.58;;;;;;;14.60;96.59;101441.69;5020689;28;20052;-83
2021/06/26 01:26:38;;;;;;;40.25;29.85;;;;;;;14.62;96.67;101442.38;5018111;28;20061;-90
2021/06/26 01:29:10;;;;;;;44.38;31.45;;;;;;;14.62;96.71;101439.66;5031927;28;20057;-83
2021/06/26 01:31:35;;;;;;;45.78;30.45;;;;;;;14.56;96.60;101429.56;5022455;28;20053;-84
2021/06/26 01:34:02;;;;;;;40.28;29.50;;;;;;;14.56;96.92;101437.66;5013116;28;20057;-83
2021/06/26 01:36:27;;;;;;;38.25;29.73;;;;;;;14.58;97.12;101434.78;5040560;28;20052;-85
2021/06/26 01:38:57;;;;;;;38.35;28.23;;;;;;;14.56;96.64;101436.81;5041863;28;20454;-91
2021/06/26 01:41:24;;;;;;;38.63;27.75;;;;;;;14.54;96.09;101434.28;5035670;28;20041;-82
2021/06/26 01:43:50;;;;;;;41.63;29.70;;;;;;;14.50;96.28;101442.88;5045335;28;20086;-86
2021/06/26 01:46:16;;;;;;;34.78;27.35;;;;;;;14.47;96.26;101437.81;5044290;28;20040;-84
2021/06/26 01:48:41;;;;;;;38.22;28.38;;;;;;;14.42;96.67;101435.66;5019568;28;20073;-84
2021/06/26 01:51:07;;;;;;;40.40;29.88;;;;;;;14.36;97.04;101436.34;5021488;28;20314;-89
2021/06/26 01:53:32;;;;;;;41.85;30.42;;;;;;;14.33;97.30;101432.13;5019942;28;20107;-83
2021/06/26 01:55:58;;;;;;;44.70;31.02;;;;;;;14.29;96.93;101436.19;5021820;28;20048;-88
2021/06/26 01:58:24;;;;;;;43.25;29.90;;;;;;;14.26;97.25;101427.59;5025063;28;20447;-82
2021/06/26 02:00:50;;;;;;;41.97;29.58;;;;;;;14.23;97.92;101431.47;5018736;28;20057;-82
2021/06/26 02:03:15;;;;;;;43.00;30.90;;;;;;;14.25;98.39;101434.84;5023871;28;20103;-89
2021/06/26 02:05:40;;;;;;;41.22;29.40;;;;;;;14.21;97.33;101436.19;5007856;28;20543;-84
2021/06/26 02:08:06;;;;;;;45.33;31.30;;;;;;;14.17;98.51;101448.38;5016020;28;20086;-84
2021/06/26 02:10:32;;;;;;;42.45;31.10;;;;;;;14.11;98.36;101440.97;5018932;28;20466;-82
2021/06/26 02:12:57;;;;;;;46.58;32.38;;;;;;;14.10;98.58;101436.59;5026575;28;20100;-83
2021/06/26 02:15:23;;;;;;;47.92;31.98;;;;;;;14.11;98.05;101432.88;5007751;28;20042;-90
2021/06/26 02:17:48;;;;;;;44.47;32.65;;;;;;;14.10;98.28;101432.03;5022483;28;20125;-85
2021/06/26 02:20:14;;;;;;;44.78;32.22;;;;;;;14.09;98.55;101427.63;5015428;28;20044;-83
2021/06/26 02:22:42;;;;;;;44.15;31.52;;;;;;;14.10;98.67;101432.03;5026682;28;20065;-82
2021/06/26 02:25:08;;;;;;;44.83;31.13;;;;;;;14.09;98.12;101429.50;5031803;28;20094;-83
2021/06/26 02:27:34;;;;;;;44.10;31.58;;;;;;;14.06;97.97;101430.66;5019615;28;20057;-83
2021/06/26 02:29:59;;;;;;;45.15;31.33;;;;;;;14.05;98.07;101429.00;5022213;28;20099;-82
2021/06/26 02:32:25;;;;;;;43.53;31.25;;;;;;;14.00;98.94;101428.66;5020014;28;20456;-86
2021/06/26 02:34:53;;;;;;;46.60;33.25;;;;;;;13.99;98.51;101430.53;5022611;28;20057;-84
2021/06/26 02:37:21;;;;;;;45.15;31.48;;;;;;;13.97;98.29;101427.16;5023123;28;20141;-83
2021/06/26 02:39:46;;;;;;;44.67;31.42;;;;;;;13.96;98.83;101430.03;5028913;28;20062;-86
2021/06/26 02:42:12;;;;;;;44.33;31.00;;;;;;;13.95;98.24;101425.63;5030790;28;20053;-82
2021/06/26 02:44:37;;;;;;;41.22;31.63;;;;;;;13.93;97.54;101428.50;5044200;28;20132;-83
2021/06/26 02:47:03;;;;;;;47.17;32.88;;;;;;;13.92;98.01;101431.38;5041948;28;20041;-83
2021/06/26 02:49:29;;;;;;;46.45;31.88;;;;;;;13.91;99.16;101435.94;5035942;28;20052;-89
2021/06/26 02:52:05;;;;;;;45.05;31.77;;;;;;;13.89;99.03;101432.53;5038292;28;20056;-83
2021/06/26 02:54:33;;;;;;;48.47;32.53;;;;;;;13.89;99.54;101434.41;5063656;28;20048;-82
2021/06/26 02:56:59;;;;;;;45.00;31.77;;;;;;;13.87;100.00;101431.06;5035967;28;20048;-83
2021/06/26 02:59:24;;;;;;;47.25;32.35;;;;;;;13.85;99.99;101430.38;5039830;28;20038;-86
2021/06/26 03:01:50;;;;;;;41.30;31.17;;;;;;;13.82;100.00;101430.72;5042703;28;20957;-84
2021/06/26 03:04:15;;;;;;;45.85;31.27;;;;;;;13.82;98.90;101428.84;5046421;28;20053;-84
2021/06/26 03:06:40;;;;;;;48.50;32.40;;;;;;;13.83;99.72;101435.09;5041386;28;20132;-84
2021/06/26 03:09:06;;;;;;;48.38;33.60;;;;;;;13.82;99.61;101444.22;5046009;28;20056;-85
2021/06/26 03:11:31;;;;;;;49.60;32.00;;;;;;;13.82;99.44;101455.00;5044769;28;20053;-87
2021/06/26 03:13:57;;;;;;;47.72;33.17;;;;;;;13.80;98.95;101444.38;5041150;28;20480;-83
2021/06/26 03:16:22;;;;;;;51.75;34.08;;;;;;;13.83;98.95;101435.09;5043838;28;20045;-85
2021/06/26 03:18:48;;;;;;;52.67;33.28;;;;;;;13.86;99.02;101440.16;5030479;28;20052;-89
2021/06/26 03:21:13;;;;;;;47.55;34.10;;;;;;;13.89;99.02;101446.03;5023790;28;20488;-83
2021/06/26 03:23:40;;;;;;;45.90;31.45;;;;;;;13.89;99.53;101447.91;5016809;28;20053;-91
2021/06/26 03:26:06;;;;;;;44.38;31.00;;;;;;;13.89;99.08;101450.59;5020531;28;20037;-86
2021/06/26 03:28:35;;;;;;;43.63;30.75;;;;;;;13.92;100.00;101442.16;5021196;28;20041;-84
2021/06/26 03:31:01;;;;;;;43.60;32.08;;;;;;;13.87;100.00;101449.94;5020625;28;20053;-83
2021/06/26 03:33:27;;;;;;;45.53;30.50;;;;;;;13.84;99.55;101455.66;5025743;28;20549;-85
2021/06/26 03:35:52;;;;;;;41.97;30.77;;;;;;;13.80;99.35;101447.06;5016296;28;20392;-92
2021/06/26 03:38:17;;;;;;;44.97;31.10;;;;;;;13.80;99.03;101451.63;5020835;28;20050;-83
2021/06/26 03:40:43;;;;;;;45.75;30.30;;;;;;;13.79;99.76;101452.63;5019543;28;20087;-83
2021/06/26 03:43:09;;;;;;;44.42;32.22;;;;;;;13.76;99.33;101451.97;5013015;28;20088;-85
2021/06/26 03:45:34;;;;;;;46.17;32.17;;;;;;;13.74;99.38;101448.56;5024640;28;20041;-87
2021/06/26 03:47:59;;;;;;;45.85;30.98;;;;;;;13.74;99.08;101442.34;5024601;28;20492;-92
2021/06/26 03:50:25;;;;;;;45.85;31.35;;;;;;;13.72;98.98;101445.22;5021594;28;20067;-83
2021/06/26 03:52:50;;;;;;;42.20;30.45;;;;;;;13.70;99.95;101457.19;5023403;28;20046;-84
2021/06/26 03:55:16;;;;;;;47.80;33.50;;;;;;;13.69;100.00;101456.31;5014967;28;20050;-85
2021/06/26 03:57:41;;;;;;;52.20;34.42;;;;;;;13.70;100.00;101452.63;5024597;28;20404;-89
2021/06/26 04:00:08;;;;;;;47.38;32.95;;;;;;;13.68;100.00;101454.66;5025336;28;20175;-83
2021/06/26 04:02:33;;;;;;;48.70;33.83;;;;;;;13.69;100.00;101461.72;5019035;28;20065;-85
2021/06/26 04:04:59;;;;;;;46.70;32.78;;;;;;;13.68;100.00;101454.66;5021350;28;20549;-86
2021/06/26 04:07:24;;;;;;;54.33;35.05;;;;;;;13.70;100.00;101449.94;5011476;28;20558;-86
2021/06/26 04:09:49;;;;;;;49.17;34.33;;;;;;;13.72;100.00;101461.41;5019504;28;20054;-84
2021/06/26 04:12:15;;;;;;;55.63;37.08;;;;;;;13.76;100.00;101451.97;5008925;28;20435;-92
2021/06/26 04:14:40;;;;;;;52.58;36.58;;;;;;;13.82;100.00;101449.59;5018110;28;20068;-84
2021/06/26 04:17:07;;;;;;;51.65;35.63;;;;;;;13.86;100.00;101453.63;5023317;28;20128;-84
2021/06/26 04:19:32;;;;;;;57.85;37.55;;;;;;;13.91;100.00;101443.19;5019681;28;20054;-83
2021/06/26 04:21:59;;;;;;;55.50;36.70;;;;;;;13.96;100.00;101454.31;5019377;28;20454;-84
2021/06/26 04:24:25;;;;;;;58.17;38.22;;;;;;;13.99;100.00;101451.28;5021140;28;20099;-91
2021/06/26 04:26:50;;;;;;;53.38;36.20;;;;;;;14.03;100.00;101452.59;5022116;28;20045;-84
2021/06/26 04:29:16;;;;;;;51.75;36.15;;;;;;;14.07;100.00;101447.69;5028098;28;20373;-86
2021/06/26 04:31:41;;;;;;;52.75;38.20;;;;;;;14.09;100.00;101451.06;5014592;28;20084;-83
2021/06/26 04:34:06;;;;;;;53.60;37.17;;;;;;;14.10;100.00;101453.63;5017697;28;20048;-84
2021/06/26 04:36:32;;;;;;;58.13;37.85;;;;;;;14.19;100.00;101455.28;5022732;28;20052;-91
2021/06/26 04:38:57;;;;;;;56.83;38.00;;;;;;;14.25;100.00;101450.22;5022425;28;20523;-86
2021/06/26 04:41:23;;;;;;;53.35;36.05;;;;;;;14.31;100.00;101449.53;5014739;28;20497;-87
2021/06/26 04:43:49;;;;;;;56.25;37.45;;;;;;;14.40;100.00;101454.72;5023244;28;20071;-84
2021/06/26 04:46:15;;;;;;;53.92;36.20;;;;;;;14.46;100.00;101450.47;5023916;28;20046;-84
2021/06/26 04:48:41;;;;;;;54.42;38.75;;;;;;;14.50;100.00;101448.25;5028933;28;20076;-86
2021/06/26 04:51:07;;;;;;;52.50;36.28;;;;;;;14.56;100.00;101448.47;5022287;28;20053;-83
2021/06/26 04:53:33;;;;;;;55.75;38.00;;;;;;;14.66;100.00;101445.56;5020914;28;20810;-85
2021/06/26 04:55:58;;;;;;;59.38;39.58;;;;;;;14.74;100.00;101442.81;5017896;28;20559;-86
2021/06/26 04:58:24;;;;;;;62.00;39.53;;;;;;;14.81;100.00;101445.66;5024067;28;20497;-84
2021/06/26 05:00:51;;;;;;;61.13;41.50;;;;;;;14.84;100.00;101448.84;5045925;28;20072;-84
2021/06/26 05:03:18;;;;;;;61.53;42.78;;;;;;;14.96;100.00;101452.00;5040642;28;20049;-83
2021/06/26 05:05:44;;;;;;;59.97;41.13;;;;;;;15.04;100.00;101453.81;5045087;28;20257;-83
2021/06/26 05:08:11;;;;;;;59.65;40.80;;;;;;;15.12;100.00;101456.47;5048000;28;20376;-84
2021/06/26 05:10:36;;;;;;;68.40;42.25;;;;;;;15.19;100.00;101454.75;5038674;28;20105;-86
2021/06/26 05:13:02;;;;;;;54.08;38.65;;;;;;;15.28;100.00;101459.06;5031807;28;20124;-84
2021/06/26 05:15:27;;;;;;;58.53;40.20;;;;;;;15.36;100.00;101466.28;5035508;28;20053;-85
2021/06/26 05:17:53;;;;;;;54.63;37.92;;;;;;;15.45;100.00;101465.22;5042525;28;20819;-90
2021/06/26 05:20:18;;;;;;;58.00;38.53;;;;;;;15.54;98.94;101469.53;5058988;28;20416;-83
2021/06/26 05:22:44;;;;;;;54.20;35.67;;;;;;;15.64;99.96;101468.44;5041936;28;20053;-85
2021/06/26 05:25:10;;;;;;;51.67;35.17;;;;;;;15.72;99.93;101466.56;5041353;28;20061;-88
2021/06/26 05:27:35;;;;;;;51.05;36.33;;;;;;;15.73;98.00;101470.09;5040597;28;20160;-90
2021/06/26 05:30:01;;;;;;;50.20;34.33;;;;;;;15.80;99.02;101457.53;5039213;28;20061;-86
2021/06/26 05:32:26;;;;;;;52.90;34.60;;;;;;;15.87;97.96;101458.47;5040234;28;20622;-84
2021/06/26 05:34:51;;;;;;;50.47;35.13;;;;;;;15.97;98.81;101444.69;5040275;28;20082;-83
2021/06/26 05:37:17;;;;;;;46.00;33.40;;;;;;;16.07;97.57;101447.13;5041978;28;20053;-86
2021/06/26 05:39:42;;;;;;;45.45;32.40;;;;;;;16.15;97.70;101452.47;5041230;28;20060;-90
2021/06/26 05:42:08;;;;;;;44.75;34.05;;;;;;;16.20;96.68;101447.34;5040340;28;20041;-84
2021/06/26 05:44:33;;;;;;;47.45;33.03;;;;;;;16.25;96.81;101450.31;5040345;28;20131;-88
2021/06/26 05:46:59;;;;;;;46.40;33.15;;;;;;;16.34;96.39;101449.22;5043072;28;20044;-88
2021/06/26 05:49:24;;;;;;;43.45;33.58;;;;;;;16.41;96.22;101450.16;5042107;28;20056;-83
2021/06/26 05:51:49;;;;;;;42.88;31.30;;;;;;;16.49;95.78;101453.81;5036358;28;20056;-84
2021/06/26 05:54:15;;;;;;;45.95;32.38;;;;;;;16.56;95.41;101455.56;5031323;28;20496;-84
2021/06/26 05:56:40;;;;;;;45.47;31.95;;;;;;;16.64;95.83;101454.63;5021746;28;20095;-84
2021/06/26 05:59:06;;;;;;;44.38;31.67;;;;;;;16.74;96.51;101451.63;5023403;28;20107;-86
2021/06/26 06:01:31;;;;;;;45.13;32.03;;;;;;;16.89;95.39;101453.31;5015670;28;20049;-83
2021/06/26 06:03:56;;;;;;;38.60;28.55;;;;;;;17.00;92.96;101451.13;5006662;28;20076;-83
2021/06/26 06:06:23;;;;;;;39.35;29.23;;;;;;;17.12;92.18;101457.75;5009111;28;20389;-87
2021/06/26 06:08:49;;;;;;;35.38;26.77;;;;;;;17.26;93.49;101459.59;5015933;28;20052;-84
2021/06/26 06:11:15;;;;;;;35.88;27.30;;;;;;;17.39;91.93;101458.88;5019628;28;20049;-85
2021/06/26 06:13:41;;;;;;;36.80;27.77;;;;;;;17.49;91.15;101458.53;5019008;28;20053;-84
2021/06/26 06:16:07;;;;;;;36.28;25.73;;;;;;;17.62;89.69;101458.69;5018064;28;20473;-87
2021/06/26 06:18:32;;;;;;;36.30;26.50;;;;;;;17.74;88.53;101462.56;5015380;28;20100;-84
2021/06/26 06:20:58;;;;;;;36.72;26.48;;;;;;;17.80;86.73;101463.69;5012895;28;20046;-83
2021/06/26 06:23:23;;;;;;;38.38;27.35;;;;;;;17.88;86.70;101458.09;5024777;28;20101;-83
2021/06/26 06:25:49;;;;;;;34.15;26.05;;;;;;;17.96;87.84;101465.28;5014189;28;20080;-83
2021/06/26 06:28:14;;;;;;;34.50;26.75;;;;;;;17.99;87.15;101463.00;5017216;28;20749;-89
2021/06/26 06:30:40;;;;;;;34.08;25.73;;;;;;;18.08;87.65;101466.41;5020090;28;20415;-84
2021/06/26 06:33:07;;;;;;;33.10;25.52;;;;;;;18.15;86.26;101461.84;5034802;28;20045;-83
2021/06/26 06:35:33;;;;;;;35.17;26.73;;;;;;;18.18;85.76;101468.78;5030372;28;20056;-83
2021/06/26 06:37:59;;;;;;;36.47;25.95;;;;;;;18.26;86.76;101466.75;5024967;28;20048;-84
2021/06/26 06:40:25;;;;;;;35.70;25.50;;;;;;;18.36;86.54;101466.41;5037482;28;20048;-84
2021/06/26 06:42:50;;;;;;;33.63;25.15;;;;;;;18.41;85.17;101473.94;5038141;28;20068;-86
2021/06/26 06:45:16;;;;;;;33.38;23.52;;;;;;;18.43;84.41;101471.88;5043742;28;20041;-83
2021/06/26 06:47:42;;;;;;;31.92;24.67;;;;;;;18.53;84.25;101474.22;5044561;28;20048;-83
2021/06/26 06:50:08;;;;;;;32.88;24.67;;;;;;;18.55;83.35;101472.97;5043552;28;20481;-85
2021/06/26 06:52:34;;;;;;;34.75;25.23;;;;;;;18.60;83.93;101473.22;5041123;28;20128;-84
2021/06/26 06:55:00;;;;;;;36.67;25.10;;;;;;;18.64;83.95;101479.09;5041057;28;20170;-84
2021/06/26 06:57:25;;;;;;;29.40;23.00;;;;;;;18.72;83.94;101471.63;5038850;28;20048;-84
2021/06/26 06:59:52;;;;;;;32.22;23.95;;;;;;;18.81;82.96;101476.91;5040339;28;20391;-86
2021/06/26 07:02:17;;;;;;;31.48;21.95;;;;;;;18.91;83.10;101474.69;5043673;28;20068;-86
2021/06/26 07:04:43;;;;;;;29.73;21.85;;;;;;;18.97;80.53;101476.56;5042043;28;20060;-91
2021/06/26 07:07:09;;;;;;;27.05;20.95;;;;;;;19.03;81.15;101473.03;5038630;28;20045;-83
2021/06/26 07:09:34;;;;;;;26.83;20.58;;;;;;;19.14;79.86;101474.34;5038397;28;20071;-84
2021/06/26 07:12:00;;;;;;;28.63;21.23;;;;;;;19.21;79.85;101468.91;5008084;28;20481;-86
2021/06/26 07:14:26;;;;;;;26.98;19.83;;;;;;;19.24;78.30;101473.94;5014414;28;20129;-86
2021/06/26 07:16:52;;;;;;;26.83;20.50;;;;;;;19.29;79.38;101472.28;5015347;28;20046;-84
2021/06/26 07:19:17;;;;;;;29.45;20.48;;;;;;;19.37;77.68;101465.81;5011769;28;20053;-87
2021/06/26 07:21:43;;;;;;;27.10;19.35;;;;;;;19.48;78.28;101469.78;5017053;28;20221;-86
2021/06/26 07:24:08;;;;;;;28.42;21.48;;;;;;;19.49;77.47;101466.88;5017490;28;20464;-86
2021/06/26 07:26:34;;;;;;;30.02;24.08;;;;;;;19.50;75.99;101468.56;5019582;28;20041;-85
2021/06/26 07:29:00;;;;;;;32.55;23.88;;;;;;;19.51;77.21;101464.81;5011293;28;20115;-86
2021/06/26 07:31:26;;;;;;;33.20;24.55;;;;;;;19.54;77.04;101472.56;5013600;28;20049;-89
2021/06/26 07:33:51;;;;;;;32.75;25.45;;;;;;;19.63;76.50;101475.09;5014615;28;20117;-84
2021/06/26 07:36:17;;;;;;;34.95;26.40;;;;;;;19.69;75.40;101477.00;5017663;28;20108;-83
2021/06/26 07:38:42;;;;;;;35.42;26.25;;;;;;;19.74;77.71;101469.88;5016508;28;20045;-83
2021/06/26 07:41:07;;;;;;;35.08;27.25;;;;;;;19.82;76.44;101466.97;5024903;28;20042;-83
2021/06/26 07:43:35;;;;;;;36.80;26.35;;;;;;;19.90;77.10;101468.63;5027719;28;20474;-83
2021/06/26 07:46:01;;;;;;;34.05;25.58;;;;;;;20.00;76.18;101469.06;5021408;28;20408;-87
2021/06/26 07:48:29;;;;;;;35.40;26.52;;;;;;;20.13;75.78;101461.91;5014411;28;20273;-83
2021/06/26 07:50:55;;;;;;;34.55;25.60;;;;;;;20.23;74.89;101462.31;5020196;28;20111;-83
2021/06/26 07:53:20;;;;;;;38.47;27.17;;;;;;;20.31;75.45;101462.06;5023701;28;20041;-83
2021/06/26 07:55:53;;;;;;;35.45;27.00;;;;;;;20.39;74.91;101459.13;5027639;28;20373;-88
2021/06/26 07:58:23;;;;;;;38.05;27.63;;;;;;;20.51;74.40;101457.44;5022962;28;20408;-83
2021/06/26 08:00:48;;;;;;;36.75;28.40;;;;;;;20.53;73.27;101456.41;5021745;28;20069;-83
2021/06/26 08:03:18;;;;;;;36.42;27.65;;;;;;;20.62;73.39;101455.97;5029255;28;20084;-84
2021/06/26 08:05:46;;;;;;;38.97;27.98;;;;;;;20.71;71.48;101453.81;5022653;28;20432;-91
2021/06/26 08:08:11;;;;;;;38.65;27.73;;;;;;;20.81;72.07;101451.50;5031201;28;20417;-83
2021/06/26 08:10:37;;;;;;;38.05;28.80;;;;;;;20.89;70.68;101456.72;5027492;28;20050;-85
2021/06/26 08:13:02;;;;;;;39.78;28.85;;;;;;;20.95;71.37;101458.56;5028486;28;20049;-84
2021/06/26 08:15:29;;;;;;;37.63;29.20;;;;;;;21.12;71.70;101447.16;5024958;28;20053;-88
2021/06/26 08:17:55;;;;;;;38.35;29.13;;;;;;;21.15;69.61;101455.75;5022945;28;20656;-83
2021/06/26 08:20:22;;;;;;;37.83;29.55;;;;;;;21.12;68.94;101450.72;5022633;28;20136;-83
2021/06/26 08:22:47;;;;;;;38.63;28.95;;;;;;;21.24;69.47;101445.41;5022281;28;20053;-84
2021/06/26 08:25:13;;;;;;;36.58;29.67;;;;;;;21.34;69.52;101453.94;5025861;28;20050;-83
2021/06/26 08:27:38;;;;;;;39.55;31.20;;;;;;;21.47;69.69;101449.50;5020805;28;20634;-83
2021/06/26 08:30:05;;;;;;;38.40;30.77;;;;;;;21.54;68.98;101442.09;5016996;28;20040;-84
2021/06/26 08:32:30;;;;;;;41.08;31.42;;;;;;;21.63;67.62;101449.78;5024435;28;20056;-84
2021/06/26 08:34:55;;;;;;;42.65;31.77;;;;;;;21.80;69.42;101441.03;5004169;28;20042;-87
2021/06/26 08:37:22;;;;;;;41.58;30.67;;;;;;;21.92;69.25;101443.88;5026445;28;20504;-84
2021/06/26 08:39:47;;;;;;;36.50;30.30;;;;;;;22.10;67.99;101443.94;5021068;28;20042;-86
2021/06/26 08:42:14;;;;;;;41.38;31.05;;;;;;;22.03;65.17;101445.88;5010093;28;20046;-86
2021/06/26 08:44:41;;;;;;;40.75;32.33;;;;;;;21.94;65.59;101441.75;5035269;28;20462;-87
2021/06/26 08:47:07;;;;;;;38.08;30.90;;;;;;;22.00;66.57;101429.94;5023967;28;20041;-85
2021/06/26 08:49:32;;;;;;;36.97;30.52;;;;;;;22.06;66.02;101438.06;5024686;28;20639;-84
2021/06/26 08:51:58;;;;;;;39.42;31.27;;;;;;;21.95;64.10;101427.88;5020055;28;20045;-88
2021/06/26 08:54:23;;;;;;;40.70;31.58;;;;;;;22.07;66.97;101433.44;5023184;28;20096;-86
2021/06/26 08:56:50;;;;;;;38.40;28.42;;;;;;;22.28;64.31;101437.69;5021904;28;20061;-87
2021/06/26 08:59:16;;;;;;;36.08;29.58;;;;;;;22.30;64.46;101430.09;5025497;28;20050;-84
2021/06/26 09:01:43;;;;;;;36.63;28.67;;;;;;;22.45;64.92;101435.19;5020789;28;20580;-84
2021/06/26 09:04:15;;;;;;;37.33;29.05;;;;;;;22.51;63.86;101428.81;5036094;28;20424;-85
2021/06/26 09:06:53;;;;;;;33.85;28.35;;;;;;;22.54;63.70;101436.56;5032056;28;20044;-88
2021/06/26 09:09:35;;;;;;;35.78;28.50;;;;;;;22.72;63.51;101433.78;5021921;28;20102;-84
2021/06/26 09:12:03;;;;;;;34.85;26.10;;;;;;;22.80;62.13;101434.56;5050717;28;20049;-86
2021/06/26 09:14:29;;;;;;;33.75;27.00;;;;;;;22.93;62.67;101434.38;5040363;28;20084;-84
2021/06/26 09:16:56;;;;;;;35.17;28.88;;;;;;;22.93;60.25;101434.38;5041406;28;20088;-84
2021/06/26 09:19:22;;;;;;;34.40;27.83;;;;;;;22.91;61.96;101442.00;5042668;28;20129;-84
2021/06/26 09:22:04;;;;;;;39.85;28.55;;;;;;;22.91;61.27;101434.63;5045674;28;20112;-83
2021/06/26 09:24:46;;;;;;;35.70;28.92;;;;;;;23.08;62.90;101447.72;5045609;28;20045;-84
2021/06/26 09:27:17;;;;;;;32.10;26.55;;;;;;;23.24;62.15;101443.47;5040031;28;20132;-83
2021/06/26 09:29:54;;;;;;;35.47;29.08;;;;;;;23.22;60.67;101438.25;5037208;28;20049;-91
2021/06/26 09:32:27;;;;;;;31.42;24.70;;;;;;;23.23;59.89;101450.03;5042047;28;20041;-84
2021/06/26 09:34:54;;;;;;;29.02;23.17;;;;;;;23.32;60.03;101445.88;5038735;28;20068;-83
2021/06/26 09:37:23;;;;;;;30.75;23.23;;;;;;;23.37;59.15;101446.84;5042948;28;20049;-85
2021/06/26 09:39:51;;;;;;;26.95;21.25;;;;;;;23.48;58.74;101444.34;5043344;28;20049;-85
2021/06/26 09:42:25;;;;;;;25.63;20.33;;;;;;;23.50;57.36;101450.44;5039211;28;20062;-84
2021/06/26 09:44:58;;;;;;;25.65;20.70;;;;;;;23.48;57.16;101447.97;5037228;28;20559;-85
2021/06/26 09:47:36;;;;;;;27.75;21.95;;;;;;;23.67;58.42;101445.13;5038047;28;20057;-93
2021/06/26 09:50:25;;;;;;;28.55;22.67;;;;;;;23.75;59.20;101440.16;5051004;28;20063;-85
2021/06/26 09:52:54;;;;;;;26.42;22.52;;;;;;;23.87;57.41;101448.41;5025945;28;20136;-91
2021/06/26 09:55:33;;;;;;;25.17;20.52;;;;;;;24.02;56.43;101446.00;5018463;28;20068;-89
2021/06/26 09:58:06;;;;;;;22.20;18.23;;;;;;;24.04;55.17;101438.41;5037683;28;20045;-87
2021/06/26 10:00:32;;;;;;;22.35;18.10;;;;;;;24.18;53.88;101440.91;5038998;28;20060;-85
2021/06/26 10:02:58;;;;;;;22.83;16.52;;;;;;;24.02;51.99;101437.78;5044298;28;20056;-88
2021/06/26 10:05:24;;;;;;;21.15;18.05;;;;;;;23.96;51.44;101443.41;5037367;28;20051;-86
2021/06/26 10:07:52;;;;;;;22.77;18.17;;;;;;;23.88;55.00;101444.59;5044594;28;20796;-86
2021/06/26 10:10:20;;;;;;;20.58;18.30;;;;;;;23.99;57.29;101442.94;5038023;28;20053;-86
2021/06/26 10:12:51;;;;;;;22.20;18.05;;;;;;;24.17;54.92;101439.22;5039117;28;20079;-85
2021/06/26 10:15:18;;;;;;;18.17;14.75;;;;;;;24.29;53.41;101443.63;5039918;28;20060;-86
2021/06/26 10:17:44;;;;;;;17.58;14.32;;;;;;;24.42;52.89;101439.78;5041225;28;20041;-84
2021/06/26 10:20:15;;;;;;;21.00;17.80;;;;;;;24.47;51.17;101425.41;5050277;28;20040;-84
2021/06/26 10:22:42;;;;;;;20.90;16.05;;;;;;;24.44;53.83;101434.94;5038375;28;20052;-88
2021/06/26 10:25:10;;;;;;;19.98;17.10;;;;;;;24.39;52.68;101436.72;5042845;28;20045;-85
2021/06/26 10:27:36;;;;;;;23.35;17.48;;;;;;;24.43;52.90;101430.53;5037718;28;20176;-85
2021/06/26 10:30:19;;;;;;;19.45;15.80;;;;;;;24.29;53.28;101426.34;5044314;28;20117;-84
2021/06/26 10:33:00;;;;;;;28.33;17.98;;;;;;;24.40;52.69;101422.78;5044320;28;20048;-85
2021/06/26 10:35:28;;;;;;;27.10;17.58;;;;;;;24.20;54.01;101427.81;5041739;28;20064;-84
2021/06/26 10:38:11;;;;;;;19.63;17.23;;;;;;;24.26;55.77;101422.19;5035209;28;20111;-84
2021/06/26 10:40:45;;;;;;;23.55;19.13;;;;;;;24.51;55.00;101423.84;5032277;28;20040;-87
2021/06/26 10:43:31;;;;;;;23.02;18.90;;;;;;;24.60;54.02;101422.41;5040250;28;20143;-85
2021/06/26 10:46:09;;;;;;;20.98;16.67;;;;;;;24.79;53.17;101424.97;5017325;28;20096;-88
2021/06/26 10:48:41;;;;;;;18.55;16.20;;;;;;;24.83;52.71;101415.16;5021678;28;20077;-86
2021/06/26 10:51:09;;;;;;;20.80;14.73;;;;;;;24.93;51.39;101415.38;5044027;28;20050;-86
2021/06/26 10:53:37;;;;;;;19.53;14.63;;;;;;;25.16;51.71;101417.19;5038334;28;20051;-87
2021/06/26 10:56:07;;;;;;;29.80;15.77;;;;;;;25.15;50.31;101430.09;5039840;28;20688;-88
2021/06/26 10:58:36;;;;;;;15.45;12.60;;;;;;;25.03;49.92;101421.06;5043019;28;20049;-85
2021/06/26 11:01:14;;;;;;;21.67;14.82;;;;;;;24.93;48.04;101416.19;5024545;28;20045;-85
2021/06/26 11:03:40;;;;;;;28.67;15.13;;;;;;;24.99;50.26;101417.94;5031902;28;20053;-87
2021/06/26 11:06:17;;;;;;;23.23;15.45;;;;;;;24.91;47.93;101418.34;5028584;28;20134;-90
2021/06/26 11:08:55;;;;;;;18.02;14.57;;;;;;;25.21;50.72;101414.56;5037140;28;20099;-85